sensor_id;sensor_type;location;lat;lon;timestamp;temperature;humidity
3566;DHT22;1797;51.844;7.684;2023-02-18T00:00:18;9.60;99.90
3566;DHT22;1797;51.844;7.684;2023-02-18T00:02:44;9.70;99.90
3566;DHT22;1797;51.844;7.684;2023-02-18T00:05:11;9.70;99.90
3566;DHT22;1797;51.844;7.684;2023-02-18T00:07:38;9.70;99.90
3566;DHT22;1797;51.844;7.684;2023-02-18T00:10:06;9.70;99.90
3566;DHT22;1797;51.844;7.684;2023-02-18T00:12:35;9.70;99.90
3566;DHT22;1797;51.844;7.684;2023-02-18T00:15:01;9.80;99.90
3566;DHT22;1797;51.844;7.684;2023-02-18T00:17:28;9.70;99.90
3566;DHT22;1797;51.844;7.684;2023-02-18T00:19:53;9.80;99.90
3566;DHT22;1797;51.844;7.684;2023-02-18T00:22:19;9.80;99.90
3566;DHT22;1797;51.844;7.684;2023-02-18T00:24:44;9.80;99.90
3566;DHT22;1797;51.844;7.684;2023-02-18T00:27:10;9.80;99.90
3566;DHT22;1797;51.844;7.684;2023-02-18T00:29:35;9.80;99.90
3566;DHT22;1797;51.844;7.684;2023-02-18T00:32:01;9.80;99.90
3566;DHT22;1797;51.844;7.684;2023-02-18T00:34:26;9.90;99.90
3566;DHT22;1797;51.844;7.684;2023-02-18T00:36:52;9.80;99.90
3566;DHT22;1797;51.844;7.684;2023-02-18T00:39:18;9.90;99.90
3566;DHT22;1797;51.844;7.684;2023-02-18T00:41:43;9.90;99.90
3566;DHT22;1797;51.844;7.684;2023-02-18T00:44:09;9.90;99.90
3566;DHT22;1797;51.844;7.684;2023-02-18T00:46:36;9.90;99.90
3566;DHT22;1797;51.844;7.684;2023-02-18T00:49:02;9.90;99.90
3566;DHT22;1797;51.844;7.684;2023-02-18T00:51:28;9.90;99.90
3566;DHT22;1797;51.844;7.684;2023-02-18T00:53:53;10.00;99.90
3566;DHT22;1797;51.844;7.684;2023-02-18T00:56:19;9.90;99.90
3566;DHT22;1797;51.844;7.684;2023-02-18T00:58:45;9.90;99.90
3566;DHT22;1797;51.844;7.684;2023-02-18T01:01:11;9.90;99.90
3566;DHT22;1797;51.844;7.684;2023-02-18T01:03:38;9.90;99.90
3566;DHT22;1797;51.844;7.684;2023-02-18T01:06:06;9.90;99.90
3566;DHT22;1797;51.844;7.684;2023-02-18T01:08:32;10.00;99.90
3566;DHT22;1797;51.844;7.684;2023-02-18T01:10:58;10.00;99.90
3566;DHT22;1797;51.844;7.684;2023-02-18T01:13:25;10.00;99.90
3566;DHT22;1797;51.844;7.684;2023-02-18T01:15:51;10.00;99.90
3566;DHT22;1797;51.844;7.684;2023-02-18T01:18:16;10.10;99.90
3566;DHT22;1797;51.844;7.684;2023-02-18T01:20:43;10.10;99.90
3566;DHT22;1797;51.844;7.684;2023-02-18T01:23:10;10.10;99.90
3566;DHT22;1797;51.844;7.684;2023-02-18T01:25:36;10.10;99.90
3566;DHT22;1797;51.844;7.684;2023-02-18T01:28:03;10.10;99.90
3566;DHT22;1797;51.844;7.684;2023-02-18T01:30:29;10.10;99.90
3566;DHT22;1797;51.844;7.684;2023-02-18T01:32:56;10.10;99.90
3566;DHT22;1797;51.844;7.684;2023-02-18T01:35:23;10.10;99.90
3566;DHT22;1797;51.844;7.684;2023-02-18T01:37:49;10.10;99.90
3566;DHT22;1797;51.844;7.684;2023-02-18T01:40:21;10.10;99.90
3566;DHT22;1797;51.844;7.684;2023-02-18T01:42:48;10.20;99.90
3566;DHT22;1797;51.844;7.684;2023-02-18T01:50:39;10.20;99.90
3566;DHT22;1797;51.844;7.684;2023-02-18T01:53:06;10.20;99.90
3566;DHT22;1797;51.844;7.684;2023-02-18T01:55:33;10.20;99.90
3566;DHT22;1797;51.844;7.684;2023-02-18T01:58:00;10.20;99.90
3566;DHT22;1797;51.844;7.684;2023-02-18T02:00:26;10.20;99.90
3566;DHT22;1797;51.844;7.684;2023-02-18T02:02:52;10.20;99.90
3566;DHT22;1797;51.844;7.684;2023-02-18T02:05:19;10.20;99.90
3566;DHT22;1797;51.844;7.684;2023-02-18T02:07:46;10.30;99.90
3566;DHT22;1797;51.844;7.684;2023-02-18T02:10:15;10.20;99.90
3566;DHT22;1797;51.844;7.684;2023-02-18T02:13:02;10.20;99.90
3566;DHT22;1797;51.844;7.684;2023-02-18T02:26:14;10.10;99.90
3566;DHT22;1797;51.844;7.684;2023-02-18T02:29:03;10.10;99.90
3566;DHT22;1797;51.844;7.684;2023-02-18T02:43:02;10.00;99.90
3566;DHT22;1797;51.844;7.684;2023-02-18T02:46:01;10.00;99.90
3566;DHT22;1797;51.844;7.684;2023-02-18T02:48:48;10.00;99.90
3566;DHT22;1797;51.844;7.684;2023-02-18T02:51:40;10.00;99.90
3566;DHT22;1797;51.844;7.684;2023-02-18T02:54:18;10.00;99.90
3566;DHT22;1797;51.844;7.684;2023-02-18T02:56:44;10.00;99.90
3566;DHT22;1797;51.844;7.684;2023-02-18T02:59:14;10.00;99.90
3566;DHT22;1797;51.844;7.684;2023-02-18T03:12:22;10.10;99.90
3566;DHT22;1797;51.844;7.684;2023-02-18T03:14:55;10.00;99.90
3566;DHT22;1797;51.844;7.684;2023-02-18T03:17:29;10.10;99.90
3566;DHT22;1797;51.844;7.684;2023-02-18T03:20:26;10.00;99.90
3566;DHT22;1797;51.844;7.684;2023-02-18T03:22:52;10.10;99.90
3566;DHT22;1797;51.844;7.684;2023-02-18T03:25:20;10.00;99.90
3566;DHT22;1797;51.844;7.684;2023-02-18T03:28:01;10.10;99.90
3566;DHT22;1797;51.844;7.684;2023-02-18T03:30:45;10.00;99.90
3566;DHT22;1797;51.844;7.684;2023-02-18T03:33:15;10.00;99.90
3566;DHT22;1797;51.844;7.684;2023-02-18T03:35:43;10.00;99.90
3566;DHT22;1797;51.844;7.684;2023-02-18T03:38:17;10.10;99.90
3566;DHT22;1797;51.844;7.684;2023-02-18T03:40:43;10.10;99.90
3566;DHT22;1797;51.844;7.684;2023-02-18T03:43:09;10.00;99.90
3566;DHT22;1797;51.844;7.684;2023-02-18T03:45:35;10.10;99.90
3566;DHT22;1797;51.844;7.684;2023-02-18T03:48:00;10.10;99.90
3566;DHT22;1797;51.844;7.684;2023-02-18T03:50:26;10.10;99.90
3566;DHT22;1797;51.844;7.684;2023-02-18T03:52:51;10.10;99.90
3566;DHT22;1797;51.844;7.684;2023-02-18T03:55:17;10.00;99.90
3566;DHT22;1797;51.844;7.684;2023-02-18T03:57:42;10.00;99.90
3566;DHT22;1797;51.844;7.684;2023-02-18T04:00:09;10.00;99.90
3566;DHT22;1797;51.844;7.684;2023-02-18T04:02:35;10.00;99.90
3566;DHT22;1797;51.844;7.684;2023-02-18T04:05:01;10.00;99.90
3566;DHT22;1797;51.844;7.684;2023-02-18T04:07:27;10.00;99.90
3566;DHT22;1797;51.844;7.684;2023-02-18T04:09:52;10.10;99.90
3566;DHT22;1797;51.844;7.684;2023-02-18T04:12:18;10.10;99.90
3566;DHT22;1797;51.844;7.684;2023-02-18T04:14:44;10.00;99.90
3566;DHT22;1797;51.844;7.684;2023-02-18T04:17:09;10.00;99.90
3566;DHT22;1797;51.844;7.684;2023-02-18T04:19:35;10.10;99.90
3566;DHT22;1797;51.844;7.684;2023-02-18T04:22:01;10.10;99.90
3566;DHT22;1797;51.844;7.684;2023-02-18T04:24:27;10.00;99.90
3566;DHT22;1797;51.844;7.684;2023-02-18T04:26:53;10.10;99.90
3566;DHT22;1797;51.844;7.684;2023-02-18T04:29:18;10.10;99.90
3566;DHT22;1797;51.844;7.684;2023-02-18T04:31:44;10.10;99.90
3566;DHT22;1797;51.844;7.684;2023-02-18T04:34:10;10.10;99.90
3566;DHT22;1797;51.844;7.684;2023-02-18T04:36:35;10.10;99.90
3566;DHT22;1797;51.844;7.684;2023-02-18T04:39:01;10.10;99.90
3566;DHT22;1797;51.844;7.684;2023-02-18T04:41:26;10.10;99.90
3566;DHT22;1797;51.844;7.684;2023-02-18T04:43:52;10.10;99.90
3566;DHT22;1797;51.844;7.684;2023-02-18T04:46:18;10.10;99.90
3566;DHT22;1797;51.844;7.684;2023-02-18T04:48:43;10.10;99.90
3566;DHT22;1797;51.844;7.684;2023-02-18T04:51:09;10.10;99.90
3566;DHT22;1797;51.844;7.684;2023-02-18T04:53:35;10.10;99.90
3566;DHT22;1797;51.844;7.684;2023-02-18T04:56:00;10.10;99.90
3566;DHT22;1797;51.844;7.684;2023-02-18T04:58:26;10.10;99.90
3566;DHT22;1797;51.844;7.684;2023-02-18T05:00:51;10.10;99.90
3566;DHT22;1797;51.844;7.684;2023-02-18T05:03:18;10.10;99.90
3566;DHT22;1797;51.844;7.684;2023-02-18T05:05:44;10.10;99.90
3566;DHT22;1797;51.844;7.684;2023-02-18T05:08:10;10.10;99.90
3566;DHT22;1797;51.844;7.684;2023-02-18T05:10:37;10.10;99.90
3566;DHT22;1797;51.844;7.684;2023-02-18T05:13:03;10.20;99.90
3566;DHT22;1797;51.844;7.684;2023-02-18T05:15:28;10.20;99.90
3566;DHT22;1797;51.844;7.684;2023-02-18T05:17:54;10.20;99.90
3566;DHT22;1797;51.844;7.684;2023-02-18T05:20:19;10.10;99.90
3566;DHT22;1797;51.844;7.684;2023-02-18T05:22:45;10.10;99.90
3566;DHT22;1797;51.844;7.684;2023-02-18T05:25:11;10.20;99.90
3566;DHT22;1797;51.844;7.684;2023-02-18T05:27:36;10.20;99.90
3566;DHT22;1797;51.844;7.684;2023-02-18T05:30:02;10.10;99.90
3566;DHT22;1797;51.844;7.684;2023-02-18T05:32:28;10.10;99.90
3566;DHT22;1797;51.844;7.684;2023-02-18T05:34:54;10.10;99.90
3566;DHT22;1797;51.844;7.684;2023-02-18T05:37:19;10.10;99.90
3566;DHT22;1797;51.844;7.684;2023-02-18T05:39:45;10.10;99.90
3566;DHT22;1797;51.844;7.684;2023-02-18T05:42:10;10.10;99.90
3566;DHT22;1797;51.844;7.684;2023-02-18T05:44:36;10.10;99.90
3566;DHT22;1797;51.844;7.684;2023-02-18T05:47:04;10.10;99.90
3566;DHT22;1797;51.844;7.684;2023-02-18T05:49:32;10.10;99.90
3566;DHT22;1797;51.844;7.684;2023-02-18T05:51:58;10.10;99.90
3566;DHT22;1797;51.844;7.684;2023-02-18T05:54:24;10.10;99.90
3566;DHT22;1797;51.844;7.684;2023-02-18T05:56:50;10.10;99.90
3566;DHT22;1797;51.844;7.684;2023-02-18T05:59:16;10.10;99.90
3566;DHT22;1797;51.844;7.684;2023-02-18T06:01:41;10.10;99.90
3566;DHT22;1797;51.844;7.684;2023-02-18T06:04:07;10.10;99.90
3566;DHT22;1797;51.844;7.684;2023-02-18T06:06:33;10.10;99.90
3566;DHT22;1797;51.844;7.684;2023-02-18T06:08:59;10.10;99.90
3566;DHT22;1797;51.844;7.684;2023-02-18T06:11:25;10.10;99.90
3566;DHT22;1797;51.844;7.684;2023-02-18T06:13:50;10.10;99.90
3566;DHT22;1797;51.844;7.684;2023-02-18T06:16:16;10.10;99.90
3566;DHT22;1797;51.844;7.684;2023-02-18T06:18:41;10.10;99.90
3566;DHT22;1797;51.844;7.684;2023-02-18T06:21:07;10.10;99.90
3566;DHT22;1797;51.844;7.684;2023-02-18T06:23:32;10.10;99.90
3566;DHT22;1797;51.844;7.684;2023-02-18T06:25:58;10.10;99.90
3566;DHT22;1797;51.844;7.684;2023-02-18T06:28:24;10.10;99.90
3566;DHT22;1797;51.844;7.684;2023-02-18T06:30:50;10.10;99.90
3566;DHT22;1797;51.844;7.684;2023-02-18T06:33:15;10.10;99.90
3566;DHT22;1797;51.844;7.684;2023-02-18T06:35:41;10.10;99.90
3566;DHT22;1797;51.844;7.684;2023-02-18T06:38:07;10.10;99.90
3566;DHT22;1797;51.844;7.684;2023-02-18T06:40:33;10.10;99.90
3566;DHT22;1797;51.844;7.684;2023-02-18T06:42:58;10.10;99.90
3566;DHT22;1797;51.844;7.684;2023-02-18T06:45:24;10.10;99.90
3566;DHT22;1797;51.844;7.684;2023-02-18T06:47:49;10.10;99.90
3566;DHT22;1797;51.844;7.684;2023-02-18T06:50:15;10.10;99.90
3566;DHT22;1797;51.844;7.684;2023-02-18T06:52:41;10.10;99.90
3566;DHT22;1797;51.844;7.684;2023-02-18T06:55:07;10.10;99.90
3566;DHT22;1797;51.844;7.684;2023-02-18T06:57:34;10.10;99.90
3566;DHT22;1797;51.844;7.684;2023-02-18T07:00:00;10.10;99.90
3566;DHT22;1797;51.844;7.684;2023-02-18T07:02:26;10.10;99.90
3566;DHT22;1797;51.844;7.684;2023-02-18T07:04:51;10.00;99.90
3566;DHT22;1797;51.844;7.684;2023-02-18T07:07:17;10.10;99.90
3566;DHT22;1797;51.844;7.684;2023-02-18T07:09:43;10.10;99.90
3566;DHT22;1797;51.844;7.684;2023-02-18T07:12:09;10.10;99.90
3566;DHT22;1797;51.844;7.684;2023-02-18T07:14:34;10.00;99.90
3566;DHT22;1797;51.844;7.684;2023-02-18T07:17:00;10.10;99.90
3566;DHT22;1797;51.844;7.684;2023-02-18T07:19:25;10.10;99.90
3566;DHT22;1797;51.844;7.684;2023-02-18T07:21:51;10.10;99.90
3566;DHT22;1797;51.844;7.684;2023-02-18T07:24:18;10.10;99.90
3566;DHT22;1797;51.844;7.684;2023-02-18T07:26:44;10.10;99.90
3566;DHT22;1797;51.844;7.684;2023-02-18T07:29:09;10.10;99.90
3566;DHT22;1797;51.844;7.684;2023-02-18T07:31:35;10.10;99.90
3566;DHT22;1797;51.844;7.684;2023-02-18T07:34:03;10.10;99.90
3566;DHT22;1797;51.844;7.684;2023-02-18T07:36:28;10.10;99.90
3566;DHT22;1797;51.844;7.684;2023-02-18T07:38:54;10.10;99.90
3566;DHT22;1797;51.844;7.684;2023-02-18T07:41:22;10.10;99.90
3566;DHT22;1797;51.844;7.684;2023-02-18T07:43:48;10.10;99.90
3566;DHT22;1797;51.844;7.684;2023-02-18T07:46:13;10.20;99.90
3566;DHT22;1797;51.844;7.684;2023-02-18T07:48:39;10.10;99.90
3566;DHT22;1797;51.844;7.684;2023-02-18T07:51:09;10.20;99.90
3566;DHT22;1797;51.844;7.684;2023-02-18T07:53:35;10.10;99.90
3566;DHT22;1797;51.844;7.684;2023-02-18T07:56:02;10.20;99.90
3566;DHT22;1797;51.844;7.684;2023-02-18T07:58:33;10.10;99.90
3566;DHT22;1797;51.844;7.684;2023-02-18T08:01:02;10.10;99.90
3566;DHT22;1797;51.844;7.684;2023-02-18T08:03:30;10.10;99.90
3566;DHT22;1797;51.844;7.684;2023-02-18T08:05:57;10.10;99.90
3566;DHT22;1797;51.844;7.684;2023-02-18T08:08:25;10.10;99.90
3566;DHT22;1797;51.844;7.684;2023-02-18T08:10:52;10.10;99.90
3566;DHT22;1797;51.844;7.684;2023-02-18T08:13:18;10.10;99.90
3566;DHT22;1797;51.844;7.684;2023-02-18T08:15:44;10.10;99.90
3566;DHT22;1797;51.844;7.684;2023-02-18T08:18:28;10.10;99.90
3566;DHT22;1797;51.844;7.684;2023-02-18T08:20:53;10.10;99.90
3566;DHT22;1797;51.844;7.684;2023-02-18T08:23:21;10.20;99.90
3566;DHT22;1797;51.844;7.684;2023-02-18T08:25:51;10.10;99.90
3566;DHT22;1797;51.844;7.684;2023-02-18T08:28:19;10.10;99.90
3566;DHT22;1797;51.844;7.684;2023-02-18T08:30:46;10.10;99.90
3566;DHT22;1797;51.844;7.684;2023-02-18T08:33:11;10.10;99.90
3566;DHT22;1797;51.844;7.684;2023-02-18T08:35:37;10.10;99.90
3566;DHT22;1797;51.844;7.684;2023-02-18T08:38:03;10.10;99.90
3566;DHT22;1797;51.844;7.684;2023-02-18T08:40:28;10.10;99.90
3566;DHT22;1797;51.844;7.684;2023-02-18T08:42:54;10.10;99.90
3566;DHT22;1797;51.844;7.684;2023-02-18T08:45:20;10.10;99.90
3566;DHT22;1797;51.844;7.684;2023-02-18T08:47:45;10.10;99.90
3566;DHT22;1797;51.844;7.684;2023-02-18T08:50:11;10.10;99.90
3566;DHT22;1797;51.844;7.684;2023-02-18T08:52:37;10.10;99.90
3566;DHT22;1797;51.844;7.684;2023-02-18T08:55:03;10.10;99.90
3566;DHT22;1797;51.844;7.684;2023-02-18T08:57:29;10.10;99.90
3566;DHT22;1797;51.844;7.684;2023-02-18T08:59:55;10.10;99.90
3566;DHT22;1797;51.844;7.684;2023-02-18T09:02:21;10.10;99.90
3566;DHT22;1797;51.844;7.684;2023-02-18T09:04:46;10.10;99.90
3566;DHT22;1797;51.844;7.684;2023-02-18T09:07:12;10.00;99.90
3566;DHT22;1797;51.844;7.684;2023-02-18T09:09:38;10.00;99.90
3566;DHT22;1797;51.844;7.684;2023-02-18T09:12:03;10.00;99.90
3566;DHT22;1797;51.844;7.684;2023-02-18T09:14:29;10.00;99.90
3566;DHT22;1797;51.844;7.684;2023-02-18T09:16:56;10.00;99.90
3566;DHT22;1797;51.844;7.684;2023-02-18T09:19:22;9.90;99.90
3566;DHT22;1797;51.844;7.684;2023-02-18T09:21:48;9.90;99.90
3566;DHT22;1797;51.844;7.684;2023-02-18T09:24:13;9.90;99.90
3566;DHT22;1797;51.844;7.684;2023-02-18T09:26:39;9.90;99.90
3566;DHT22;1797;51.844;7.684;2023-02-18T09:29:05;9.90;99.90
3566;DHT22;1797;51.844;7.684;2023-02-18T09:31:31;9.90;99.90
3566;DHT22;1797;51.844;7.684;2023-02-18T09:33:59;9.90;99.90
3566;DHT22;1797;51.844;7.684;2023-02-18T09:36:26;9.80;99.90
3566;DHT22;1797;51.844;7.684;2023-02-18T09:38:52;9.80;99.90
3566;DHT22;1797;51.844;7.684;2023-02-18T09:41:36;9.80;99.90
3566;DHT22;1797;51.844;7.684;2023-02-18T09:44:30;9.70;99.90
3566;DHT22;1797;51.844;7.684;2023-02-18T09:47:02;9.70;99.90
3566;DHT22;1797;51.844;7.684;2023-02-18T09:49:31;9.70;99.90
3566;DHT22;1797;51.844;7.684;2023-02-18T09:52:05;9.70;99.90
3566;DHT22;1797;51.844;7.684;2023-02-18T09:54:31;9.60;99.90
3566;DHT22;1797;51.844;7.684;2023-02-18T09:56:58;9.60;99.90
3566;DHT22;1797;51.844;7.684;2023-02-18T09:59:25;9.60;99.90
3566;DHT22;1797;51.844;7.684;2023-02-18T10:01:52;9.60;99.90
3566;DHT22;1797;51.844;7.684;2023-02-18T10:04:22;9.60;99.90
3566;DHT22;1797;51.844;7.684;2023-02-18T10:06:51;9.50;99.90
3566;DHT22;1797;51.844;7.684;2023-02-18T10:09:35;9.50;99.90
3566;DHT22;1797;51.844;7.684;2023-02-18T10:12:18;9.50;99.90
3566;DHT22;1797;51.844;7.684;2023-02-18T10:14:56;9.60;99.90
3566;DHT22;1797;51.844;7.684;2023-02-18T10:17:25;9.60;99.90
3566;DHT22;1797;51.844;7.684;2023-02-18T10:19:52;9.60;99.90
3566;DHT22;1797;51.844;7.684;2023-02-18T10:22:19;9.60;99.90
3566;DHT22;1797;51.844;7.684;2023-02-18T10:24:52;9.60;99.90
3566;DHT22;1797;51.844;7.684;2023-02-18T10:27:38;9.60;99.90
3566;DHT22;1797;51.844;7.684;2023-02-18T10:30:24;9.60;99.90
3566;DHT22;1797;51.844;7.684;2023-02-18T10:32:58;9.70;99.90
3566;DHT22;1797;51.844;7.684;2023-02-18T10:35:32;9.70;99.90
3566;DHT22;1797;51.844;7.684;2023-02-18T10:38:27;9.60;99.90
3566;DHT22;1797;51.844;7.684;2023-02-18T10:51:53;9.60;99.90
3566;DHT22;1797;51.844;7.684;2023-02-18T10:54:23;9.50;99.90
3566;DHT22;1797;51.844;7.684;2023-02-18T10:56:51;9.60;99.90
3566;DHT22;1797;51.844;7.684;2023-02-18T10:59:31;9.70;99.90
3566;DHT22;1797;51.844;7.684;2023-02-18T11:02:04;9.60;99.90
3566;DHT22;1797;51.844;7.684;2023-02-18T11:04:40;9.60;99.90
3566;DHT22;1797;51.844;7.684;2023-02-18T11:07:21;9.60;99.90
3566;DHT22;1797;51.844;7.684;2023-02-18T11:09:49;9.50;99.90
3566;DHT22;1797;51.844;7.684;2023-02-18T11:17:34;9.50;99.90
3566;DHT22;1797;51.844;7.684;2023-02-18T11:20:28;9.40;99.90
3566;DHT22;1797;51.844;7.684;2023-02-18T11:23:20;9.50;99.90
3566;DHT22;1797;51.844;7.684;2023-02-18T11:25:58;9.50;99.90
3566;DHT22;1797;51.844;7.684;2023-02-18T11:28:39;9.50;99.90
3566;DHT22;1797;51.844;7.684;2023-02-18T11:31:07;9.50;99.90
3566;DHT22;1797;51.844;7.684;2023-02-18T11:33:36;9.50;99.90
3566;DHT22;1797;51.844;7.684;2023-02-18T11:36:30;9.50;99.90
3566;DHT22;1797;51.844;7.684;2023-02-18T11:39:24;9.50;99.90
3566;DHT22;1797;51.844;7.684;2023-02-18T11:42:04;9.40;99.90
3566;DHT22;1797;51.844;7.684;2023-02-18T11:47:03;9.50;99.90
3566;DHT22;1797;51.844;7.684;2023-02-18T11:49:31;9.40;99.90
3566;DHT22;1797;51.844;7.684;2023-02-18T11:52:19;9.40;99.90
3566;DHT22;1797;51.844;7.684;2023-02-18T11:55:10;9.40;99.90
3566;DHT22;1797;51.844;7.684;2023-02-18T11:57:39;9.40;99.90
3566;DHT22;1797;51.844;7.684;2023-02-18T12:00:20;9.40;99.90
3566;DHT22;1797;51.844;7.684;2023-02-18T12:02:46;9.50;99.90
3566;DHT22;1797;51.844;7.684;2023-02-18T12:05:25;9.40;99.90
3566;DHT22;1797;51.844;7.684;2023-02-18T12:08:05;9.40;99.90
3566;DHT22;1797;51.844;7.684;2023-02-18T12:13:02;9.40;99.90
3566;DHT22;1797;51.844;7.684;2023-02-18T12:23:55;9.40;99.90
3566;DHT22;1797;51.844;7.684;2023-02-18T12:37:51;9.40;99.90
3566;DHT22;1797;51.844;7.684;2023-02-18T12:49:30;9.50;99.90
3566;DHT22;1797;51.844;7.684;2023-02-18T12:54:57;9.50;99.90
3566;DHT22;1797;51.844;7.684;2023-02-18T12:57:35;9.50;99.90
3566;DHT22;1797;51.844;7.684;2023-02-18T13:03:23;9.50;99.90
3566;DHT22;1797;51.844;7.684;2023-02-18T13:09:38;9.50;99.90
3566;DHT22;1797;51.844;7.684;2023-02-18T13:12:29;9.50;99.90
3566;DHT22;1797;51.844;7.684;2023-02-18T13:15:12;9.50;99.90
3566;DHT22;1797;51.844;7.684;2023-02-18T13:17:42;9.50;99.90
3566;DHT22;1797;51.844;7.684;2023-02-18T13:20:19;9.60;99.90
3566;DHT22;1797;51.844;7.684;2023-02-18T13:22:46;9.60;99.90
3566;DHT22;1797;51.844;7.684;2023-02-18T13:25:15;9.60;99.90
3566;DHT22;1797;51.844;7.684;2023-02-18T13:27:47;9.70;99.90
3566;DHT22;1797;51.844;7.684;2023-02-18T13:35:47;9.80;99.90
3566;DHT22;1797;51.844;7.684;2023-02-18T13:38:31;9.80;99.90
3566;DHT22;1797;51.844;7.684;2023-02-18T13:41:01;9.70;99.90
3566;DHT22;1797;51.844;7.684;2023-02-18T13:43:32;9.80;99.90
3566;DHT22;1797;51.844;7.684;2023-02-18T13:48:34;9.90;99.90
3566;DHT22;1797;51.844;7.684;2023-02-18T13:51:03;9.90;99.90
3566;DHT22;1797;51.844;7.684;2023-02-18T13:53:33;9.90;99.90
3566;DHT22;1797;51.844;7.684;2023-02-18T13:56:21;9.90;99.90
3566;DHT22;1797;51.844;7.684;2023-02-18T13:58:58;9.90;99.90
3566;DHT22;1797;51.844;7.684;2023-02-18T14:01:44;9.90;99.90
3566;DHT22;1797;51.844;7.684;2023-02-18T14:04:33;9.90;99.90
3566;DHT22;1797;51.844;7.684;2023-02-18T14:22:46;9.80;99.90
3566;DHT22;1797;51.844;7.684;2023-02-18T14:25:23;9.80;99.90
3566;DHT22;1797;51.844;7.684;2023-02-18T14:27:52;9.90;99.90
3566;DHT22;1797;51.844;7.684;2023-02-18T14:32:49;9.90;99.90
3566;DHT22;1797;51.844;7.684;2023-02-18T14:35:38;9.90;99.90
3566;DHT22;1797;51.844;7.684;2023-02-18T14:41:36;10.00;99.90
3566;DHT22;1797;51.844;7.684;2023-02-18T14:47:10;10.10;99.90
3566;DHT22;1797;51.844;7.684;2023-02-18T14:49:51;10.10;99.90
3566;DHT22;1797;51.844;7.684;2023-02-18T14:52:30;10.10;99.90
3566;DHT22;1797;51.844;7.684;2023-02-18T14:55:00;10.00;99.90
3566;DHT22;1797;51.844;7.684;2023-02-18T14:57:36;10.10;99.90
3566;DHT22;1797;51.844;7.684;2023-02-18T15:00:04;10.00;99.90
3566;DHT22;1797;51.844;7.684;2023-02-18T15:02:35;10.00;99.90
3566;DHT22;1797;51.844;7.684;2023-02-18T15:05:21;10.00;99.90
3566;DHT22;1797;51.844;7.684;2023-02-18T15:08:00;10.00;99.90
3566;DHT22;1797;51.844;7.684;2023-02-18T15:10:43;10.00;99.90
3566;DHT22;1797;51.844;7.684;2023-02-18T15:13:39;10.00;99.90
3566;DHT22;1797;51.844;7.684;2023-02-18T15:16:13;10.10;99.90
3566;DHT22;1797;51.844;7.684;2023-02-18T15:18:59;10.00;99.90
3566;DHT22;1797;51.844;7.684;2023-02-18T15:21:34;10.10;99.90
3566;DHT22;1797;51.844;7.684;2023-02-18T15:24:22;10.10;99.90
3566;DHT22;1797;51.844;7.684;2023-02-18T15:26:49;10.10;99.90
3566;DHT22;1797;51.844;7.684;2023-02-18T15:29:34;10.10;99.90
3566;DHT22;1797;51.844;7.684;2023-02-18T15:32:00;10.20;99.90
3566;DHT22;1797;51.844;7.684;2023-02-18T15:36:59;10.20;99.90
3566;DHT22;1797;51.844;7.684;2023-02-18T15:39:25;10.20;99.90
3566;DHT22;1797;51.844;7.684;2023-02-18T15:41:57;10.30;99.90
3566;DHT22;1797;51.844;7.684;2023-02-18T15:44:28;10.20;99.90
3566;DHT22;1797;51.844;7.684;2023-02-18T15:46:59;10.20;99.90
3566;DHT22;1797;51.844;7.684;2023-02-18T15:49:24;10.20;99.90
3566;DHT22;1797;51.844;7.684;2023-02-18T15:51:57;10.30;99.90
3566;DHT22;1797;51.844;7.684;2023-02-18T15:54:23;10.30;99.90
3566;DHT22;1797;51.844;7.684;2023-02-18T15:56:52;10.20;99.90
3566;DHT22;1797;51.844;7.684;2023-02-18T15:59:23;10.20;99.90
3566;DHT22;1797;51.844;7.684;2023-02-18T16:01:55;10.20;99.90
3566;DHT22;1797;51.844;7.684;2023-02-18T16:04:23;10.20;99.90
3566;DHT22;1797;51.844;7.684;2023-02-18T16:06:53;10.20;99.90
3566;DHT22;1797;51.844;7.684;2023-02-18T16:09:26;10.20;99.90
3566;DHT22;1797;51.844;7.684;2023-02-18T16:11:57;10.20;99.90
3566;DHT22;1797;51.844;7.684;2023-02-18T16:14:46;10.10;99.90
3566;DHT22;1797;51.844;7.684;2023-02-18T16:17:24;10.10;99.90
3566;DHT22;1797;51.844;7.684;2023-02-18T16:19:59;10.10;99.90
3566;DHT22;1797;51.844;7.684;2023-02-18T16:27:34;10.10;99.90
3566;DHT22;1797;51.844;7.684;2023-02-18T16:30:08;10.10;99.90
3566;DHT22;1797;51.844;7.684;2023-02-18T16:32:38;10.10;99.90
3566;DHT22;1797;51.844;7.684;2023-02-18T16:35:04;10.10;99.90
3566;DHT22;1797;51.844;7.684;2023-02-18T16:37:30;10.10;99.90
3566;DHT22;1797;51.844;7.684;2023-02-18T16:40:33;10.10;99.90
3566;DHT22;1797;51.844;7.684;2023-02-18T16:43:05;10.10;99.90
3566;DHT22;1797;51.844;7.684;2023-02-18T16:45:34;10.10;99.90
3566;DHT22;1797;51.844;7.684;2023-02-18T16:48:00;10.10;99.90
3566;DHT22;1797;51.844;7.684;2023-02-18T16:50:27;10.10;99.90
3566;DHT22;1797;51.844;7.684;2023-02-18T16:52:55;10.10;99.90
3566;DHT22;1797;51.844;7.684;2023-02-18T16:55:23;10.10;99.90
3566;DHT22;1797;51.844;7.684;2023-02-18T16:57:49;10.10;99.90
3566;DHT22;1797;51.844;7.684;2023-02-18T17:00:16;10.10;99.90
3566;DHT22;1797;51.844;7.684;2023-02-18T17:02:47;10.10;99.90
3566;DHT22;1797;51.844;7.684;2023-02-18T17:05:19;10.20;99.90
3566;DHT22;1797;51.844;7.684;2023-02-18T17:07:44;10.10;99.90
3566;DHT22;1797;51.844;7.684;2023-02-18T17:10:10;10.10;99.90
3566;DHT22;1797;51.844;7.684;2023-02-18T17:12:36;10.00;99.90
3566;DHT22;1797;51.844;7.684;2023-02-18T17:15:29;10.10;99.90
3566;DHT22;1797;51.844;7.684;2023-02-18T17:17:56;10.10;99.90
3566;DHT22;1797;51.844;7.684;2023-02-18T17:20:27;10.10;99.90
3566;DHT22;1797;51.844;7.684;2023-02-18T17:22:53;10.10;99.90
3566;DHT22;1797;51.844;7.684;2023-02-18T17:27:53;10.10;99.90
3566;DHT22;1797;51.844;7.684;2023-02-18T17:30:19;10.00;99.90
3566;DHT22;1797;51.844;7.684;2023-02-18T17:32:45;10.00;99.90
3566;DHT22;1797;51.844;7.684;2023-02-18T17:35:20;10.00;99.90
3566;DHT22;1797;51.844;7.684;2023-02-18T17:37:46;10.00;99.90
3566;DHT22;1797;51.844;7.684;2023-02-18T17:40:25;10.00;99.90
3566;DHT22;1797;51.844;7.684;2023-02-18T17:42:53;10.10;99.90
3566;DHT22;1797;51.844;7.684;2023-02-18T17:47:57;10.10;99.90
3566;DHT22;1797;51.844;7.684;2023-02-18T17:50:24;10.00;99.90
3566;DHT22;1797;51.844;7.684;2023-02-18T17:52:50;10.10;99.90
3566;DHT22;1797;51.844;7.684;2023-02-18T17:55:20;10.10;99.90
3566;DHT22;1797;51.844;7.684;2023-02-18T17:57:47;10.10;99.90
3566;DHT22;1797;51.844;7.684;2023-02-18T18:00:15;10.10;99.90
3566;DHT22;1797;51.844;7.684;2023-02-18T18:02:41;10.10;99.90
3566;DHT22;1797;51.844;7.684;2023-02-18T18:05:20;10.10;99.90
3566;DHT22;1797;51.844;7.684;2023-02-18T18:07:46;10.10;99.90
3566;DHT22;1797;51.844;7.684;2023-02-18T18:10:13;10.10;99.90
3566;DHT22;1797;51.844;7.684;2023-02-18T18:12:38;10.10;99.90
3566;DHT22;1797;51.844;7.684;2023-02-18T18:17:42;10.10;99.90
3566;DHT22;1797;51.844;7.684;2023-02-18T18:20:08;10.10;99.90
3566;DHT22;1797;51.844;7.684;2023-02-18T18:22:34;10.10;99.90
3566;DHT22;1797;51.844;7.684;2023-02-18T18:24:59;10.10;99.90
3566;DHT22;1797;51.844;7.684;2023-02-18T18:27:25;10.10;99.90
3566;DHT22;1797;51.844;7.684;2023-02-18T18:29:50;10.10;99.90
3566;DHT22;1797;51.844;7.684;2023-02-18T18:32:16;10.20;99.90
3566;DHT22;1797;51.844;7.684;2023-02-18T18:34:41;10.20;99.90
3566;DHT22;1797;51.844;7.684;2023-02-18T18:37:08;10.20;99.90
3566;DHT22;1797;51.844;7.684;2023-02-18T18:39:34;10.20;99.90
3566;DHT22;1797;51.844;7.684;2023-02-18T18:41:59;10.20;99.90
3566;DHT22;1797;51.844;7.684;2023-02-18T18:44:26;10.20;99.90
3566;DHT22;1797;51.844;7.684;2023-02-18T18:46:52;10.20;99.90
3566;DHT22;1797;51.844;7.684;2023-02-18T18:49:17;10.20;99.90